sensor_id;sensor_type;location;lat;lon;timestamp;P1;durP1;ratioP1;P2;durP2;ratioP2
52854;SDS011;38719;51.418;7.286;2022-08-19T00:01:22;16.83;;;7.90;;
52854;SDS011;38719;51.418;7.286;2022-08-19T00:03:54;12.50;;;8.35;;
52854;SDS011;38719;51.418;7.286;2022-08-19T00:06:23;13.10;;;7.63;;
52854;SDS011;38719;51.418;7.286;2022-08-19T00:08:51;12.63;;;7.57;;
52854;SDS011;38719;51.418;7.286;2022-08-19T00:11:18;16.08;;;8.25;;
52854;SDS011;38719;51.418;7.286;2022-08-19T00:13:51;11.68;;;8.18;;
52854;SDS011;38719;51.418;7.286;2022-08-19T00:16:22;11.10;;;7.40;;
52854;SDS011;38719;51.418;7.286;2022-08-19T00:18:52;11.20;;;8.02;;
52854;SDS011;38719;51.418;7.286;2022-08-19T00:21:21;9.20;;;7.60;;
52854;SDS011;38719;51.418;7.286;2022-08-19T00:23:51;11.60;;;8.07;;
52854;SDS011;38719;51.418;7.286;2022-08-19T00:26:19;13.68;;;8.70;;
52854;SDS011;38719;51.418;7.286;2022-08-19T00:28:47;11.25;;;8.55;;
52854;SDS011;38719;51.418;7.286;2022-08-19T00:31:15;13.38;;;8.00;;
52854;SDS011;38719;51.418;7.286;2022-08-19T00:33:42;11.05;;;7.95;;
52854;SDS011;38719;51.418;7.286;2022-08-19T00:36:10;11.68;;;7.65;;
52854;SDS011;38719;51.418;7.286;2022-08-19T00:38:39;11.18;;;8.45;;
52854;SDS011;38719;51.418;7.286;2022-08-19T00:41:12;12.52;;;8.45;;
52854;SDS011;38719;51.418;7.286;2022-08-19T00:43:40;9.55;;;8.07;;
52854;SDS011;38719;51.418;7.286;2022-08-19T00:46:08;11.68;;;8.48;;
52854;SDS011;38719;51.418;7.286;2022-08-19T00:48:36;13.98;;;9.32;;
52854;SDS011;38719;51.418;7.286;2022-08-19T00:51:04;16.30;;;9.07;;
52854;SDS011;38719;51.418;7.286;2022-08-19T00:53:32;13.07;;;9.02;;
52854;SDS011;38719;51.418;7.286;2022-08-19T00:56:01;12.32;;;9.07;;
52854;SDS011;38719;51.418;7.286;2022-08-19T00:58:33;15.10;;;10.18;;
52854;SDS011;38719;51.418;7.286;2022-08-19T01:01:02;14.85;;;9.27;;
52854;SDS011;38719;51.418;7.286;2022-08-19T01:03:33;12.52;;;9.27;;
52854;SDS011;38719;51.418;7.286;2022-08-19T01:06:21;17.67;;;10.18;;
52854;SDS011;38719;51.418;7.286;2022-08-19T01:08:49;14.43;;;10.02;;
52854;SDS011;38719;51.418;7.286;2022-08-19T01:11:16;15.32;;;10.98;;
52854;SDS011;38719;51.418;7.286;2022-08-19T01:13:45;20.98;;;11.18;;
52854;SDS011;38719;51.418;7.286;2022-08-19T01:16:15;15.23;;;10.50;;
52854;SDS011;38719;51.418;7.286;2022-08-19T01:18:45;14.25;;;10.32;;
52854;SDS011;38719;51.418;7.286;2022-08-19T01:21:16;13.85;;;10.35;;
52854;SDS011;38719;51.418;7.286;2022-08-19T01:23:50;15.02;;;10.73;;
52854;SDS011;38719;51.418;7.286;2022-08-19T01:26:21;13.98;;;10.02;;
52854;SDS011;38719;51.418;7.286;2022-08-19T01:28:52;17.30;;;10.73;;
52854;SDS011;38719;51.418;7.286;2022-08-19T01:31:27;15.48;;;10.50;;
52854;SDS011;38719;51.418;7.286;2022-08-19T01:33:58;19.27;;;11.60;;
52854;SDS011;38719;51.418;7.286;2022-08-19T01:36:28;13.63;;;10.43;;
52854;SDS011;38719;51.418;7.286;2022-08-19T01:38:59;17.27;;;10.88;;
52854;SDS011;38719;51.418;7.286;2022-08-19T01:41:28;15.30;;;10.18;;
52854;SDS011;38719;51.418;7.286;2022-08-19T01:43:55;16.45;;;11.07;;
52854;SDS011;38719;51.418;7.286;2022-08-19T01:46:43;14.05;;;10.00;;
52854;SDS011;38719;51.418;7.286;2022-08-19T01:49:13;16.52;;;12.00;;
52854;SDS011;38719;51.418;7.286;2022-08-19T01:51:41;15.23;;;11.80;;
52854;SDS011;38719;51.418;7.286;2022-08-19T01:54:11;17.27;;;12.52;;
52854;SDS011;38719;51.418;7.286;2022-08-19T01:56:53;22.42;;;12.85;;
52854;SDS011;38719;51.418;7.286;2022-08-19T01:59:25;20.23;;;12.45;;
52854;SDS011;38719;51.418;7.286;2022-08-19T02:01:53;19.50;;;12.55;;
52854;SDS011;38719;51.418;7.286;2022-08-19T02:04:21;16.88;;;11.32;;
52854;SDS011;38719;51.418;7.286;2022-08-19T02:06:49;16.40;;;10.52;;
52854;SDS011;38719;51.418;7.286;2022-08-19T02:09:18;14.95;;;11.00;;
52854;SDS011;38719;51.418;7.286;2022-08-19T02:11:46;16.40;;;11.43;;
52854;SDS011;38719;51.418;7.286;2022-08-19T02:14:13;13.45;;;10.82;;
52854;SDS011;38719;51.418;7.286;2022-08-19T02:16:41;17.27;;;11.27;;
52854;SDS011;38719;51.418;7.286;2022-08-19T02:19:08;15.40;;;10.73;;
52854;SDS011;38719;51.418;7.286;2022-08-19T02:21:36;13.70;;;11.07;;
52854;SDS011;38719;51.418;7.286;2022-08-19T02:24:04;20.10;;;12.82;;
52854;SDS011;38719;51.418;7.286;2022-08-19T02:26:33;20.88;;;13.52;;
52854;SDS011;38719;51.418;7.286;2022-08-19T02:29:01;20.55;;;11.32;;
52854;SDS011;38719;51.418;7.286;2022-08-19T02:31:28;20.00;;;12.27;;
52854;SDS011;38719;51.418;7.286;2022-08-19T02:33:56;16.52;;;11.73;;
52854;SDS011;38719;51.418;7.286;2022-08-19T02:36:24;17.70;;;11.07;;
52854;SDS011;38719;51.418;7.286;2022-08-19T02:38:52;16.70;;;12.02;;
52854;SDS011;38719;51.418;7.286;2022-08-19T02:41:21;19.38;;;12.35;;
52854;SDS011;38719;51.418;7.286;2022-08-19T02:43:54;18.45;;;12.57;;
52854;SDS011;38719;51.418;7.286;2022-08-19T02:46:44;20.00;;;12.65;;
52854;SDS011;38719;51.418;7.286;2022-08-19T02:49:13;23.10;;;13.48;;
52854;SDS011;38719;51.418;7.286;2022-08-19T02:51:43;16.45;;;11.43;;
52854;SDS011;38719;51.418;7.286;2022-08-19T02:54:12;16.23;;;12.60;;
52854;SDS011;38719;51.418;7.286;2022-08-19T02:56:42;19.60;;;12.18;;
52854;SDS011;38719;51.418;7.286;2022-08-19T02:59:11;16.77;;;11.80;;
52854;SDS011;38719;51.418;7.286;2022-08-19T03:01:39;17.80;;;12.40;;
52854;SDS011;38719;51.418;7.286;2022-08-19T03:04:09;17.42;;;12.93;;
52854;SDS011;38719;51.418;7.286;2022-08-19T03:06:40;19.30;;;12.57;;
52854;SDS011;38719;51.418;7.286;2022-08-19T03:09:10;16.73;;;12.63;;
52854;SDS011;38719;51.418;7.286;2022-08-19T03:11:38;21.55;;;13.00;;
52854;SDS011;38719;51.418;7.286;2022-08-19T03:14:07;18.40;;;13.52;;
52854;SDS011;38719;51.418;7.286;2022-08-19T03:16:39;19.63;;;14.07;;
52854;SDS011;38719;51.418;7.286;2022-08-19T03:19:09;19.92;;;12.95;;
52854;SDS011;38719;51.418;7.286;2022-08-19T03:21:36;18.25;;;13.45;;
52854;SDS011;38719;51.418;7.286;2022-08-19T03:24:05;18.50;;;13.52;;
52854;SDS011;38719;51.418;7.286;2022-08-19T03:26:37;19.00;;;13.43;;
52854;SDS011;38719;51.418;7.286;2022-08-19T03:29:06;20.15;;;13.18;;
52854;SDS011;38719;51.418;7.286;2022-08-19T03:31:40;20.85;;;13.70;;
52854;SDS011;38719;51.418;7.286;2022-08-19T03:34:18;17.52;;;12.95;;
52854;SDS011;38719;51.418;7.286;2022-08-19T03:36:48;19.35;;;12.95;;
52854;SDS011;38719;51.418;7.286;2022-08-19T03:39:16;20.52;;;12.98;;
52854;SDS011;38719;51.418;7.286;2022-08-19T03:41:44;20.25;;;13.13;;
52854;SDS011;38719;51.418;7.286;2022-08-19T03:44:35;19.55;;;13.05;;
52854;SDS011;38719;51.418;7.286;2022-08-19T03:47:06;16.27;;;12.30;;
52854;SDS011;38719;51.418;7.286;2022-08-19T03:49:34;17.35;;;13.02;;
52854;SDS011;38719;51.418;7.286;2022-08-19T03:52:02;18.80;;;12.80;;
52854;SDS011;38719;51.418;7.286;2022-08-19T03:54:33;18.55;;;13.77;;
52854;SDS011;38719;51.418;7.286;2022-08-19T03:57:02;22.65;;;13.90;;
52854;SDS011;38719;51.418;7.286;2022-08-19T03:59:31;19.58;;;14.20;;
52854;SDS011;38719;51.418;7.286;2022-08-19T04:02:02;21.95;;;14.18;;
52854;SDS011;38719;51.418;7.286;2022-08-19T04:04:36;18.00;;;12.98;;
52854;SDS011;38719;51.418;7.286;2022-08-19T04:07:04;19.38;;;13.68;;
52854;SDS011;38719;51.418;7.286;2022-08-19T04:09:33;17.17;;;13.32;;
52854;SDS011;38719;51.418;7.286;2022-08-19T04:12:03;20.95;;;13.48;;
52854;SDS011;38719;51.418;7.286;2022-08-19T04:14:32;18.40;;;13.50;;
52854;SDS011;38719;51.418;7.286;2022-08-19T04:17:01;18.67;;;13.32;;
52854;SDS011;38719;51.418;7.286;2022-08-19T04:19:30;20.15;;;13.77;;
52854;SDS011;38719;51.418;7.286;2022-08-19T04:22:00;21.48;;;13.75;;
52854;SDS011;38719;51.418;7.286;2022-08-19T04:24:28;20.75;;;13.77;;
52854;SDS011;38719;51.418;7.286;2022-08-19T04:26:55;16.73;;;12.15;;
52854;SDS011;38719;51.418;7.286;2022-08-19T04:29:24;21.25;;;13.80;;
52854;SDS011;38719;51.418;7.286;2022-08-19T04:31:53;18.27;;;13.45;;
52854;SDS011;38719;51.418;7.286;2022-08-19T04:34:22;19.10;;;13.05;;
52854;SDS011;38719;51.418;7.286;2022-08-19T04:36:53;19.00;;;12.95;;
52854;SDS011;38719;51.418;7.286;2022-08-19T04:39:24;18.23;;;13.23;;
52854;SDS011;38719;51.418;7.286;2022-08-19T04:42:14;17.02;;;12.73;;
52854;SDS011;38719;51.418;7.286;2022-08-19T04:45:01;17.40;;;12.50;;
52854;SDS011;38719;51.418;7.286;2022-08-19T04:47:34;19.60;;;13.10;;
52854;SDS011;38719;51.418;7.286;2022-08-19T04:50:22;18.85;;;12.98;;
52854;SDS011;38719;51.418;7.286;2022-08-19T04:52:50;19.65;;;13.10;;
52854;SDS011;38719;51.418;7.286;2022-08-19T04:55:20;16.67;;;12.70;;
52854;SDS011;38719;51.418;7.286;2022-08-19T04:57:47;18.17;;;12.50;;
52854;SDS011;38719;51.418;7.286;2022-08-19T05:00:16;17.58;;;12.52;;
52854;SDS011;38719;51.418;7.286;2022-08-19T05:02:44;19.95;;;12.50;;
52854;SDS011;38719;51.418;7.286;2022-08-19T05:05:12;19.27;;;12.27;;
52854;SDS011;38719;51.418;7.286;2022-08-19T05:07:40;18.90;;;12.70;;
52854;SDS011;38719;51.418;7.286;2022-08-19T05:10:08;18.23;;;12.57;;
52854;SDS011;38719;51.418;7.286;2022-08-19T05:12:37;19.55;;;12.35;;
52854;SDS011;38719;51.418;7.286;2022-08-19T05:15:05;17.80;;;11.95;;
52854;SDS011;38719;51.418;7.286;2022-08-19T05:17:35;18.80;;;11.90;;
52854;SDS011;38719;51.418;7.286;2022-08-19T05:20:05;16.17;;;12.07;;
52854;SDS011;38719;51.418;7.286;2022-08-19T05:22:51;19.23;;;11.65;;
52854;SDS011;38719;51.418;7.286;2022-08-19T05:25:19;17.70;;;11.93;;
52854;SDS011;38719;51.418;7.286;2022-08-19T05:27:49;18.58;;;11.52;;
52854;SDS011;38719;51.418;7.286;2022-08-19T05:30:17;21.13;;;12.00;;
52854;SDS011;38719;51.418;7.286;2022-08-19T05:33:05;20.85;;;12.27;;
52854;SDS011;38719;51.418;7.286;2022-08-19T05:35:35;14.88;;;10.60;;
52854;SDS011;38719;51.418;7.286;2022-08-19T05:38:04;15.05;;;11.30;;
52854;SDS011;38719;51.418;7.286;2022-08-19T05:40:33;19.15;;;11.57;;
52854;SDS011;38719;51.418;7.286;2022-08-19T05:43:03;18.58;;;10.82;;
52854;SDS011;38719;51.418;7.286;2022-08-19T05:45:32;16.70;;;10.25;;
52854;SDS011;38719;51.418;7.286;2022-08-19T05:48:04;15.75;;;10.88;;
52854;SDS011;38719;51.418;7.286;2022-08-19T05:50:32;20.80;;;10.95;;
52854;SDS011;38719;51.418;7.286;2022-08-19T05:53:00;14.48;;;10.80;;
52854;SDS011;38719;51.418;7.286;2022-08-19T05:55:27;16.83;;;11.77;;
52854;SDS011;38719;51.418;7.286;2022-08-19T05:57:55;20.67;;;12.23;;
52854;SDS011;38719;51.418;7.286;2022-08-19T06:00:24;13.98;;;10.30;;
52854;SDS011;38719;51.418;7.286;2022-08-19T06:02:52;19.67;;;11.38;;
52854;SDS011;38719;51.418;7.286;2022-08-19T06:05:20;15.75;;;10.73;;
52854;SDS011;38719;51.418;7.286;2022-08-19T06:07:48;17.63;;;11.10;;
52854;SDS011;38719;51.418;7.286;2022-08-19T06:10:16;15.63;;;10.75;;
52854;SDS011;38719;51.418;7.286;2022-08-19T06:12:43;14.55;;;10.43;;
52854;SDS011;38719;51.418;7.286;2022-08-19T06:15:11;16.55;;;10.55;;
52854;SDS011;38719;51.418;7.286;2022-08-19T06:17:42;12.35;;;9.55;;
52854;SDS011;38719;51.418;7.286;2022-08-19T06:20:12;16.92;;;10.60;;
52854;SDS011;38719;51.418;7.286;2022-08-19T06:22:41;18.70;;;10.32;;
52854;SDS011;38719;51.418;7.286;2022-08-19T06:25:11;15.82;;;10.15;;
52854;SDS011;38719;51.418;7.286;2022-08-19T06:27:40;16.30;;;10.32;;
52854;SDS011;38719;51.418;7.286;2022-08-19T06:30:28;17.98;;;11.02;;
52854;SDS011;38719;51.418;7.286;2022-08-19T06:32:57;15.43;;;11.13;;
52854;SDS011;38719;51.418;7.286;2022-08-19T06:35:24;15.57;;;11.32;;
52854;SDS011;38719;51.418;7.286;2022-08-19T06:37:53;21.52;;;12.10;;
52854;SDS011;38719;51.418;7.286;2022-08-19T06:40:20;19.63;;;11.75;;
52854;SDS011;38719;51.418;7.286;2022-08-19T06:42:48;23.30;;;12.68;;
52854;SDS011;38719;51.418;7.286;2022-08-19T06:45:20;18.88;;;12.32;;
52854;SDS011;38719;51.418;7.286;2022-08-19T06:47:50;20.98;;;12.32;;
52854;SDS011;38719;51.418;7.286;2022-08-19T06:50:23;20.73;;;12.82;;
52854;SDS011;38719;51.418;7.286;2022-08-19T06:52:51;25.00;;;12.68;;
52854;SDS011;38719;51.418;7.286;2022-08-19T06:55:20;19.65;;;13.18;;
52854;SDS011;38719;51.418;7.286;2022-08-19T06:57:49;20.25;;;13.38;;
52854;SDS011;38719;51.418;7.286;2022-08-19T07:00:19;21.70;;;12.50;;
52854;SDS011;38719;51.418;7.286;2022-08-19T07:02:47;21.15;;;12.90;;
52854;SDS011;38719;51.418;7.286;2022-08-19T07:05:20;24.55;;;13.95;;
52854;SDS011;38719;51.418;7.286;2022-08-19T07:07:49;20.80;;;13.90;;
52854;SDS011;38719;51.418;7.286;2022-08-19T07:10:17;24.27;;;15.02;;
52854;SDS011;38719;51.418;7.286;2022-08-19T07:12:45;21.92;;;14.25;;
52854;SDS011;38719;51.418;7.286;2022-08-19T07:15:13;26.52;;;15.82;;
52854;SDS011;38719;51.418;7.286;2022-08-19T07:17:44;25.33;;;15.32;;
52854;SDS011;38719;51.418;7.286;2022-08-19T07:20:17;23.45;;;15.77;;
52854;SDS011;38719;51.418;7.286;2022-08-19T07:22:47;25.27;;;14.15;;
52854;SDS011;38719;51.418;7.286;2022-08-19T07:25:15;21.23;;;14.23;;
52854;SDS011;38719;51.418;7.286;2022-08-19T07:27:43;24.42;;;15.00;;
52854;SDS011;38719;51.418;7.286;2022-08-19T07:30:19;24.70;;;14.95;;
52854;SDS011;38719;51.418;7.286;2022-08-19T07:32:51;26.40;;;15.27;;
52854;SDS011;38719;51.418;7.286;2022-08-19T07:35:19;22.15;;;14.55;;
52854;SDS011;38719;51.418;7.286;2022-08-19T07:37:48;22.60;;;15.02;;
52854;SDS011;38719;51.418;7.286;2022-08-19T07:40:15;22.90;;;14.25;;
52854;SDS011;38719;51.418;7.286;2022-08-19T07:42:43;23.42;;;14.50;;
52854;SDS011;38719;51.418;7.286;2022-08-19T07:45:11;24.00;;;14.52;;
52854;SDS011;38719;51.418;7.286;2022-08-19T07:47:39;19.75;;;13.35;;
52854;SDS011;38719;51.418;7.286;2022-08-19T07:50:15;22.27;;;13.32;;
52854;SDS011;38719;51.418;7.286;2022-08-19T07:52:45;23.02;;;12.98;;
52854;SDS011;38719;51.418;7.286;2022-08-19T07:55:16;19.40;;;12.55;;
52854;SDS011;38719;51.418;7.286;2022-08-19T07:58:06;20.42;;;13.20;;
52854;SDS011;38719;51.418;7.286;2022-08-19T08:00:33;19.35;;;12.10;;
52854;SDS011;38719;51.418;7.286;2022-08-19T08:03:02;19.55;;;12.02;;
52854;SDS011;38719;51.418;7.286;2022-08-19T08:05:30;19.20;;;13.07;;
52854;SDS011;38719;51.418;7.286;2022-08-19T08:08:15;18.63;;;12.43;;
52854;SDS011;38719;51.418;7.286;2022-08-19T08:11:16;21.17;;;13.98;;
52854;SDS011;38719;51.418;7.286;2022-08-19T08:13:46;19.67;;;12.73;;
52854;SDS011;38719;51.418;7.286;2022-08-19T08:16:26;24.30;;;12.68;;
52854;SDS011;38719;51.418;7.286;2022-08-19T08:18:56;21.80;;;12.50;;
52854;SDS011;38719;51.418;7.286;2022-08-19T08:21:24;21.98;;;13.20;;
52854;SDS011;38719;51.418;7.286;2022-08-19T08:23:51;19.35;;;13.10;;
52854;SDS011;38719;51.418;7.286;2022-08-19T08:26:22;24.95;;;15.13;;
52854;SDS011;38719;51.418;7.286;2022-08-19T08:28:51;20.45;;;13.70;;
52854;SDS011;38719;51.418;7.286;2022-08-19T08:31:18;23.35;;;13.20;;
52854;SDS011;38719;51.418;7.286;2022-08-19T08:33:46;20.60;;;12.93;;
52854;SDS011;38719;51.418;7.286;2022-08-19T08:36:14;18.98;;;13.55;;
52854;SDS011;38719;51.418;7.286;2022-08-19T08:38:42;23.27;;;13.85;;
52854;SDS011;38719;51.418;7.286;2022-08-19T08:41:13;20.52;;;13.65;;
52854;SDS011;38719;51.418;7.286;2022-08-19T08:43:50;20.77;;;14.23;;
52854;SDS011;38719;51.418;7.286;2022-08-19T08:46:21;20.50;;;14.02;;
52854;SDS011;38719;51.418;7.286;2022-08-19T08:48:57;26.85;;;16.58;;
52854;SDS011;38719;51.418;7.286;2022-08-19T08:51:31;24.92;;;17.65;;
52854;SDS011;38719;51.418;7.286;2022-08-19T08:54:02;25.35;;;17.17;;
52854;SDS011;38719;51.418;7.286;2022-08-19T08:56:36;24.27;;;16.10;;
52854;SDS011;38719;51.418;7.286;2022-08-19T08:59:07;24.33;;;16.95;;
52854;SDS011;38719;51.418;7.286;2022-08-19T09:04:07;24.58;;;17.25;;
52854;SDS011;38719;51.418;7.286;2022-08-19T09:06:37;30.20;;;19.30;;
52854;SDS011;38719;51.418;7.286;2022-08-19T09:09:13;29.95;;;18.77;;
52854;SDS011;38719;51.418;7.286;2022-08-19T09:11:47;31.30;;;19.42;;
52854;SDS011;38719;51.418;7.286;2022-08-19T09:14:30;27.10;;;18.85;;
52854;SDS011;38719;51.418;7.286;2022-08-19T09:17:16;30.23;;;18.98;;
52854;SDS011;38719;51.418;7.286;2022-08-19T09:19:49;25.80;;;17.85;;
52854;SDS011;38719;51.418;7.286;2022-08-19T09:22:19;27.95;;;19.27;;
52854;SDS011;38719;51.418;7.286;2022-08-19T09:24:52;26.42;;;16.75;;
52854;SDS011;38719;51.418;7.286;2022-08-19T09:27:21;26.23;;;17.33;;
52854;SDS011;38719;51.418;7.286;2022-08-19T09:30:11;25.35;;;17.17;;
52854;SDS011;38719;51.418;7.286;2022-08-19T09:32:41;27.33;;;18.50;;
52854;SDS011;38719;51.418;7.286;2022-08-19T09:35:09;25.60;;;19.40;;
52854;SDS011;38719;51.418;7.286;2022-08-19T09:37:38;26.08;;;18.98;;
52854;SDS011;38719;51.418;7.286;2022-08-19T09:40:08;24.70;;;17.77;;
52854;SDS011;38719;51.418;7.286;2022-08-19T09:42:37;27.73;;;18.95;;
52854;SDS011;38719;51.418;7.286;2022-08-19T09:45:19;27.20;;;19.27;;
52854;SDS011;38719;51.418;7.286;2022-08-19T09:47:49;32.15;;;22.30;;
52854;SDS011;38719;51.418;7.286;2022-08-19T09:50:20;28.85;;;22.75;;
52854;SDS011;38719;51.418;7.286;2022-08-19T09:52:49;28.08;;;21.30;;
52854;SDS011;38719;51.418;7.286;2022-08-19T09:55:22;36.05;;;21.77;;
52854;SDS011;38719;51.418;7.286;2022-08-19T09:57:57;27.95;;;20.00;;
52854;SDS011;38719;51.418;7.286;2022-08-19T10:00:27;26.50;;;19.23;;
52854;SDS011;38719;51.418;7.286;2022-08-19T10:02:54;31.90;;;19.15;;
52854;SDS011;38719;51.418;7.286;2022-08-19T10:05:22;26.33;;;18.67;;
52854;SDS011;38719;51.418;7.286;2022-08-19T10:08:07;25.52;;;16.85;;
52854;SDS011;38719;51.418;7.286;2022-08-19T10:10:39;22.88;;;16.60;;
52854;SDS011;38719;51.418;7.286;2022-08-19T10:13:12;27.60;;;17.92;;
52854;SDS011;38719;51.418;7.286;2022-08-19T10:15:42;23.92;;;17.25;;
52854;SDS011;38719;51.418;7.286;2022-08-19T10:18:14;22.77;;;16.08;;
52854;SDS011;38719;51.418;7.286;2022-08-19T10:20:44;23.05;;;16.20;;
52854;SDS011;38719;51.418;7.286;2022-08-19T10:23:17;22.25;;;14.52;;
52854;SDS011;38719;51.418;7.286;2022-08-19T10:25:45;20.98;;;15.52;;
52854;SDS011;38719;51.418;7.286;2022-08-19T10:28:13;19.73;;;14.52;;
52854;SDS011;38719;51.418;7.286;2022-08-19T10:30:45;16.38;;;12.20;;
52854;SDS011;38719;51.418;7.286;2022-08-19T10:33:14;19.48;;;13.02;;
52854;SDS011;38719;51.418;7.286;2022-08-19T10:36:03;21.77;;;14.93;;
52854;SDS011;38719;51.418;7.286;2022-08-19T10:38:32;19.90;;;14.35;;
52854;SDS011;38719;51.418;7.286;2022-08-19T10:41:05;20.05;;;14.75;;
52854;SDS011;38719;51.418;7.286;2022-08-19T10:43:34;20.35;;;13.63;;
52854;SDS011;38719;51.418;7.286;2022-08-19T10:46:05;15.70;;;10.95;;
52854;SDS011;38719;51.418;7.286;2022-08-19T10:48:42;14.35;;;10.52;;
52854;SDS011;38719;51.418;7.286;2022-08-19T10:51:11;14.20;;;10.90;;
52854;SDS011;38719;51.418;7.286;2022-08-19T10:53:57;14.98;;;10.75;;
52854;SDS011;38719;51.418;7.286;2022-08-19T10:56:26;12.73;;;10.60;;
52854;SDS011;38719;51.418;7.286;2022-08-19T10:59:12;17.88;;;12.65;;
52854;SDS011;38719;51.418;7.286;2022-08-19T11:01:42;15.70;;;11.95;;
52854;SDS011;38719;51.418;7.286;2022-08-19T11:04:12;14.30;;;11.93;;
52854;SDS011;38719;51.418;7.286;2022-08-19T11:06:43;14.80;;;11.55;;
52854;SDS011;38719;51.418;7.286;2022-08-19T11:09:13;14.35;;;10.00;;
52854;SDS011;38719;51.418;7.286;2022-08-19T11:11:41;14.60;;;10.07;;
52854;SDS011;38719;51.418;7.286;2022-08-19T11:14:11;14.88;;;10.73;;
52854;SDS011;38719;51.418;7.286;2022-08-19T11:16:42;15.13;;;10.95;;
52854;SDS011;38719;51.418;7.286;2022-08-19T11:19:10;15.05;;;11.50;;
52854;SDS011;38719;51.418;7.286;2022-08-19T11:21:41;14.98;;;10.57;;
52854;SDS011;38719;51.418;7.286;2022-08-19T11:24:15;17.10;;;9.93;;
52854;SDS011;38719;51.418;7.286;2022-08-19T11:26:44;12.05;;;9.75;;
52854;SDS011;38719;51.418;7.286;2022-08-19T11:29:12;12.07;;;9.52;;
52854;SDS011;38719;51.418;7.286;2022-08-19T11:31:41;15.27;;;10.57;;
52854;SDS011;38719;51.418;7.286;2022-08-19T11:34:13;15.02;;;10.05;;
52854;SDS011;38719;51.418;7.286;2022-08-19T11:36:43;11.15;;;9.05;;
52854;SDS011;38719;51.418;7.286;2022-08-19T11:39:14;15.73;;;11.23;;
52854;SDS011;38719;51.418;7.286;2022-08-19T11:41:43;16.48;;;11.60;;
52854;SDS011;38719;51.418;7.286;2022-08-19T11:44:15;18.60;;;10.98;;
52854;SDS011;38719;51.418;7.286;2022-08-19T11:46:44;16.40;;;10.35;;
52854;SDS011;38719;51.418;7.286;2022-08-19T11:49:12;13.55;;;9.45;;
52854;SDS011;38719;51.418;7.286;2022-08-19T11:51:41;12.27;;;10.60;;
52854;SDS011;38719;51.418;7.286;2022-08-19T11:54:10;12.40;;;10.40;;
52854;SDS011;38719;51.418;7.286;2022-08-19T11:56:39;14.55;;;9.82;;
52854;SDS011;38719;51.418;7.286;2022-08-19T11:59:07;12.70;;;9.15;;
52854;SDS011;38719;51.418;7.286;2022-08-19T12:01:40;11.10;;;8.68;;
52854;SDS011;38719;51.418;7.286;2022-08-19T12:04:10;10.88;;;8.35;;
52854;SDS011;38719;51.418;7.286;2022-08-19T12:06:39;10.85;;;8.38;;
52854;SDS011;38719;51.418;7.286;2022-08-19T12:09:07;13.40;;;9.98;;
52854;SDS011;38719;51.418;7.286;2022-08-19T12:11:37;15.35;;;11.32;;
52854;SDS011;38719;51.418;7.286;2022-08-19T12:14:05;15.45;;;10.50;;
52854;SDS011;38719;51.418;7.286;2022-08-19T12:16:39;18.45;;;10.52;;
52854;SDS011;38719;51.418;7.286;2022-08-19T12:19:17;26.80;;;10.93;;
52854;SDS011;38719;51.418;7.286;2022-08-19T12:21:47;18.88;;;10.57;;
52854;SDS011;38719;51.418;7.286;2022-08-19T12:24:16;24.05;;;11.05;;
52854;SDS011;38719;51.418;7.286;2022-08-19T12:26:48;27.42;;;10.70;;
52854;SDS011;38719;51.418;7.286;2022-08-19T12:29:18;20.15;;;9.75;;
52854;SDS011;38719;51.418;7.286;2022-08-19T12:31:49;15.25;;;9.07;;
52854;SDS011;38719;51.418;7.286;2022-08-19T12:34:18;19.95;;;9.70;;
52854;SDS011;38719;51.418;7.286;2022-08-19T12:36:46;21.90;;;9.82;;
52854;SDS011;38719;51.418;7.286;2022-08-19T12:39:15;12.50;;;9.35;;
52854;SDS011;38719;51.418;7.286;2022-08-19T12:41:43;12.95;;;8.70;;
52854;SDS011;38719;51.418;7.286;2022-08-19T12:44:20;19.35;;;8.85;;
52854;SDS011;38719;51.418;7.286;2022-08-19T12:46:54;18.15;;;9.05;;
52854;SDS011;38719;51.418;7.286;2022-08-19T12:49:24;15.13;;;8.60;;
52854;SDS011;38719;51.418;7.286;2022-08-19T12:52:11;25.80;;;10.40;;
52854;SDS011;38719;51.418;7.286;2022-08-19T12:54:47;16.65;;;9.40;;
52854;SDS011;38719;51.418;7.286;2022-08-19T12:57:20;10.93;;;8.35;;
52854;SDS011;38719;51.418;7.286;2022-08-19T12:59:51;11.77;;;7.93;;
52854;SDS011;38719;51.418;7.286;2022-08-19T13:02:20;7.53;;;6.80;;
52854;SDS011;38719;51.418;7.286;2022-08-19T13:04:49;8.90;;;6.38;;
52854;SDS011;38719;51.418;7.286;2022-08-19T13:07:17;10.73;;;7.20;;
52854;SDS011;38719;51.418;7.286;2022-08-19T13:09:44;10.30;;;7.40;;
52854;SDS011;38719;51.418;7.286;2022-08-19T13:12:12;10.18;;;7.18;;
52854;SDS011;38719;51.418;7.286;2022-08-19T13:14:40;13.18;;;7.75;;
52854;SDS011;38719;51.418;7.286;2022-08-19T13:17:08;10.82;;;7.78;;
52854;SDS011;38719;51.418;7.286;2022-08-19T13:19:37;9.85;;;7.47;;
52854;SDS011;38719;51.418;7.286;2022-08-19T13:22:07;30.92;;;7.78;;
52854;SDS011;38719;51.418;7.286;2022-08-19T13:27:12;22.02;;;7.32;;
52854;SDS011;38719;51.418;7.286;2022-08-19T13:29:40;31.00;;;8.45;;
52854;SDS011;38719;51.418;7.286;2022-08-19T13:32:25;13.98;;;7.75;;
52854;SDS011;38719;51.418;7.286;2022-08-19T13:35:11;8.38;;;7.07;;
52854;SDS011;38719;51.418;7.286;2022-08-19T13:37:43;16.02;;;6.97;;
52854;SDS011;38719;51.418;7.286;2022-08-19T13:40:13;11.88;;;7.22;;
52854;SDS011;38719;51.418;7.286;2022-08-19T13:42:45;9.80;;;6.28;;
52854;SDS011;38719;51.418;7.286;2022-08-19T13:45:16;7.60;;;6.72;;
52854;SDS011;38719;51.418;7.286;2022-08-19T13:47:45;33.67;;;7.93;;
52854;SDS011;38719;51.418;7.286;2022-08-19T13:50:15;9.10;;;6.28;;
52854;SDS011;38719;51.418;7.286;2022-08-19T13:52:45;8.52;;;6.38;;
52854;SDS011;38719;51.418;7.286;2022-08-19T13:55:14;25.55;;;6.57;;
52854;SDS011;38719;51.418;7.286;2022-08-19T13:57:50;18.90;;;6.80;;
52854;SDS011;38719;51.418;7.286;2022-08-19T14:00:19;12.48;;;6.68;;
52854;SDS011;38719;51.418;7.286;2022-08-19T14:02:51;7.75;;;6.15;;
52854;SDS011;38719;51.418;7.286;2022-08-19T14:05:20;8.07;;;5.88;;
52854;SDS011;38719;51.418;7.286;2022-08-19T14:07:49;9.90;;;5.80;;
52854;SDS011;38719;51.418;7.286;2022-08-19T14:10:17;15.48;;;5.50;;
52854;SDS011;38719;51.418;7.286;2022-08-19T14:12:45;30.63;;;6.03;;
52854;SDS011;38719;51.418;7.286;2022-08-19T14:15:13;26.90;;;6.03;;
52854;SDS011;38719;51.418;7.286;2022-08-19T14:17:43;15.68;;;5.45;;
52854;SDS011;38719;51.418;7.286;2022-08-19T14:20:13;28.13;;;6.70;;
52854;SDS011;38719;51.418;7.286;2022-08-19T14:22:44;10.10;;;4.70;;
52854;SDS011;38719;51.418;7.286;2022-08-19T14:25:17;52.72;;;7.13;;
52854;SDS011;38719;51.418;7.286;2022-08-19T14:27:47;30.27;;;5.90;;
52854;SDS011;38719;51.418;7.286;2022-08-19T14:30:17;24.75;;;5.70;;
52854;SDS011;38719;51.418;7.286;2022-08-19T14:32:47;26.13;;;6.13;;
52854;SDS011;38719;51.418;7.286;2022-08-19T14:35:15;11.50;;;4.90;;
52854;SDS011;38719;51.418;7.286;2022-08-19T14:37:44;12.55;;;5.55;;
52854;SDS011;38719;51.418;7.286;2022-08-19T14:40:14;16.98;;;5.20;;
52854;SDS011;38719;51.418;7.286;2022-08-19T14:42:43;30.50;;;5.65;;
52854;SDS011;38719;51.418;7.286;2022-08-19T14:45:11;7.32;;;4.90;;
52854;SDS011;38719;51.418;7.286;2022-08-19T14:47:39;7.55;;;4.53;;
52854;SDS011;38719;51.418;7.286;2022-08-19T14:50:08;44.97;;;6.10;;
52854;SDS011;38719;51.418;7.286;2022-08-19T14:52:44;128.77;;;9.35;;